createdAt,value
2022-12-10T00:01:52.961Z,36.25
2022-12-10T00:04:21.910Z,28.30
2022-12-10T00:06:50.504Z,23.85
2022-12-10T00:09:21.337Z,19.10
2022-12-10T00:11:50.619Z,18.25
2022-12-10T00:14:18.451Z,18.08
2022-12-10T00:16:46.236Z,21.90
2022-12-10T00:19:13.933Z,20.40
2022-12-10T00:21:45.877Z,14.57
2022-12-10T00:24:13.725Z,15.93
2022-12-10T00:26:42.607Z,15.25
2022-12-10T00:29:12.907Z,12.10
2022-12-10T00:31:41.379Z,13.48
2022-12-10T00:34:11.968Z,11.25
2022-12-10T00:36:45.150Z,12.77
2022-12-10T00:39:17.252Z,21.63
2022-12-10T00:41:47.113Z,22.95
2022-12-10T00:44:15.759Z,8.98
2022-12-10T00:46:43.760Z,12.23
2022-12-10T00:49:11.811Z,15.35
2022-12-10T00:51:41.636Z,15.82
2022-12-10T00:54:09.758Z,10.27
2022-12-10T00:56:37.833Z,12.85
2022-12-10T00:59:05.677Z,15.35
2022-12-10T01:01:39.731Z,16.73
2022-12-10T01:04:13.197Z,15.75
2022-12-10T01:06:46.240Z,12.38
2022-12-10T01:09:21.992Z,10.00
2022-12-10T01:11:52.721Z,13.60
2022-12-10T01:14:29.548Z,11.40
2022-12-10T01:17:01.283Z,11.10
2022-12-10T01:19:31.409Z,8.85
2022-12-10T01:22:03.911Z,12.80
2022-12-10T01:24:32.607Z,13.32
2022-12-10T01:27:00.488Z,17.30
2022-12-10T01:31:59.135Z,8.55
2022-12-10T01:34:27.253Z,7.20
2022-12-10T01:36:58.376Z,8.00
2022-12-10T01:39:26.389Z,11.80
2022-12-10T01:42:00.874Z,6.75
2022-12-10T01:44:28.378Z,8.95
2022-12-10T01:47:01.521Z,8.27
2022-12-10T01:49:38.337Z,10.77
2022-12-10T01:52:12.345Z,12.25
2022-12-10T01:54:46.136Z,9.85
2022-12-10T01:57:28.219Z,16.52
2022-12-10T02:00:03.093Z,8.43
2022-12-10T02:02:50.292Z,12.48
2022-12-10T02:05:42.111Z,10.45
2022-12-10T02:08:15.424Z,12.55
2022-12-10T02:11:01.094Z,15.52
2022-12-10T02:14:05.127Z,19.23
2022-12-10T02:16:43.642Z,12.13
2022-12-10T02:19:18.392Z,13.25
2022-12-10T02:21:50.611Z,8.02
2022-12-10T02:24:30.024Z,11.73
2022-12-10T02:27:24.971Z,5.88
2022-12-10T02:29:55.599Z,12.90
2022-12-10T02:32:31.561Z,8.98
2022-12-10T02:35:10.480Z,9.90
2022-12-10T02:37:50.874Z,7.75
2022-12-10T02:40:28.489Z,11.13
2022-12-10T02:42:56.708Z,7.35
2022-12-10T02:45:30.523Z,6.80
2022-12-10T02:48:04.575Z,6.93
2022-12-10T02:53:07.843Z,7.45
2022-12-10T02:56:08.610Z,6.43
2022-12-10T02:58:58.009Z,2.17
2022-12-10T03:01:58.093Z,4.18
2022-12-10T03:05:04.842Z,5.03
2022-12-10T03:07:46.016Z,6.78
2022-12-10T03:10:31.581Z,7.00
2022-12-10T03:13:03.553Z,7.93
2022-12-10T03:15:36.338Z,11.27
2022-12-10T03:18:07.140Z,7.53
2022-12-10T03:20:42.489Z,4.82
2022-12-10T03:23:17.563Z,7.00
2022-12-10T03:25:49.184Z,6.15
2022-12-10T03:28:22.600Z,8.30
2022-12-10T03:30:54.180Z,3.67
2022-12-10T03:33:22.326Z,5.85
2022-12-10T03:35:51.823Z,9.13
2022-12-10T03:38:20.455Z,5.82
2022-12-10T03:40:48.225Z,5.80
2022-12-10T03:43:15.969Z,7.07
2022-12-10T03:45:43.548Z,5.32
2022-12-10T03:48:11.189Z,4.85
2022-12-10T03:50:38.769Z,7.88
2022-12-10T03:53:06.306Z,9.05
2022-12-10T03:55:33.978Z,6.00
2022-12-10T03:58:01.542Z,9.35
2022-12-10T04:00:29.104Z,14.70
2022-12-10T04:02:56.758Z,9.50
2022-12-10T04:05:24.435Z,8.60
2022-12-10T04:07:52.368Z,12.45
2022-12-10T04:10:20.152Z,11.20
2022-12-10T04:13:07.974Z,9.40
2022-12-10T04:15:58.652Z,4.43
2022-12-10T04:18:26.229Z,5.60
2022-12-10T04:21:12.345Z,7.30
2022-12-10T04:23:59.237Z,6.63
2022-12-10T04:26:45.896Z,8.40
2022-12-10T04:29:14.662Z,7.85
2022-12-10T04:31:42.238Z,6.45
2022-12-10T04:34:09.958Z,7.80
2022-12-10T04:36:37.819Z,8.27
2022-12-10T04:39:05.644Z,7.50
2022-12-10T04:41:33.261Z,8.20
2022-12-10T04:44:00.919Z,7.68
2022-12-10T04:46:29.222Z,9.25
2022-12-10T04:48:56.981Z,9.43
2022-12-10T04:51:24.571Z,10.27
2022-12-10T04:53:52.253Z,7.70
2022-12-10T04:56:21.079Z,8.98
2022-12-10T04:58:48.734Z,14.43
2022-12-10T05:01:17.109Z,37.00
2022-12-10T05:03:45.692Z,11.18
2022-12-10T05:06:16.336Z,12.40
2022-12-10T05:08:44.776Z,12.60
2022-12-10T05:13:50.759Z,7.07
2022-12-10T05:16:21.380Z,9.43
2022-12-10T05:18:50.865Z,8.57
2022-12-10T05:21:21.855Z,8.48
2022-12-10T05:23:52.524Z,12.95
2022-12-10T05:26:25.717Z,8.30
2022-12-10T05:28:56.691Z,18.52
2022-12-10T05:31:29.747Z,16.42
2022-12-10T05:33:59.670Z,13.20
2022-12-10T05:36:30.908Z,19.63
2022-12-10T05:39:00.042Z,11.32
2022-12-10T05:41:32.142Z,15.23
2022-12-10T05:44:00.218Z,11.68
2022-12-10T05:46:31.921Z,8.25
2022-12-10T05:49:02.076Z,13.90
2022-12-10T05:51:34.008Z,18.50
2022-12-10T05:54:05.309Z,15.18
2022-12-10T05:56:33.206Z,14.07
2022-12-10T05:59:03.327Z,11.38
2022-12-10T06:01:35.323Z,16.45
2022-12-10T06:04:06.028Z,18.73
2022-12-10T06:06:37.234Z,15.43
2022-12-10T06:09:07.036Z,30.17
2022-12-10T06:11:35.004Z,24.48
2022-12-10T06:14:03.325Z,21.38
2022-12-10T06:18:59.502Z,11.55
2022-12-10T06:23:54.919Z,9.83
2022-12-10T06:26:26.311Z,9.15
2022-12-10T06:28:54.841Z,5.22
2022-12-10T06:31:23.934Z,8.75
2022-12-10T06:33:53.554Z,13.25
2022-12-10T06:36:21.720Z,23.48
2022-12-10T06:38:49.812Z,78.03
2022-12-10T06:41:21.747Z,63.42
2022-12-10T06:43:50.253Z,60.83
2022-12-10T06:46:21.420Z,49.25
2022-12-10T06:48:49.520Z,73.97
2022-12-10T06:51:19.016Z,49.90
2022-12-10T06:53:47.989Z,34.05
2022-12-10T06:56:19.658Z,37.80
2022-12-10T06:58:47.778Z,23.70
2022-12-10T07:01:27.184Z,21.27
2022-12-10T07:03:57.728Z,19.33
2022-12-10T07:06:29.116Z,20.73
2022-12-10T07:08:56.671Z,31.20
2022-12-10T07:11:26.507Z,27.50
2022-12-10T07:13:54.155Z,49.53
2022-12-10T07:16:33.570Z,52.88
2022-12-10T07:19:03.438Z,45.13
2022-12-10T07:21:35.418Z,49.92
2022-12-10T07:24:11.212Z,57.75
2022-12-10T07:26:42.186Z,32.03
2022-12-10T07:29:17.949Z,28.70
2022-12-10T07:31:46.298Z,35.88
2022-12-10T07:36:42.241Z,46.80
2022-12-10T07:39:17.987Z,26.92
2022-12-10T07:41:55.977Z,18.95
2022-12-10T07:44:27.022Z,19.33
2022-12-10T07:46:56.245Z,31.20
2022-12-10T07:49:24.018Z,45.50
2022-12-10T07:51:52.057Z,35.15
2022-12-10T07:54:21.154Z,37.42
2022-12-10T07:56:48.749Z,24.27
2022-12-10T07:59:16.477Z,31.73
2022-12-10T08:01:44.237Z,32.80
2022-12-10T08:04:11.911Z,24.38
2022-12-10T08:06:39.415Z,26.98
2022-12-10T08:09:08.517Z,33.22
2022-12-10T08:11:36.149Z,22.88
2022-12-10T08:14:03.732Z,25.48
2022-12-10T08:16:32.314Z,34.42
2022-12-10T08:19:02.810Z,150.07
2022-12-10T08:21:33.440Z,42.25
2022-12-10T08:24:01.859Z,36.50
2022-12-10T08:26:33.179Z,34.45
2022-12-10T08:29:02.153Z,25.08
2022-12-10T08:31:35.765Z,21.77
2022-12-10T08:34:05.900Z,27.65
2022-12-10T08:36:33.527Z,27.35
2022-12-10T08:39:01.084Z,28.70
2022-12-10T08:41:28.938Z,32.30
2022-12-10T08:43:56.581Z,34.13
2022-12-10T08:46:26.042Z,33.17
2022-12-10T08:48:53.661Z,27.65
2022-12-10T08:51:21.921Z,27.90
2022-12-10T08:56:16.960Z,28.80
2022-12-10T08:58:44.518Z,41.53
2022-12-10T09:01:17.388Z,86.10
2022-12-10T09:03:46.056Z,54.85
2022-12-10T09:06:18.765Z,36.22
2022-12-10T09:08:47.152Z,38.80
2022-12-10T09:11:20.574Z,28.70
2022-12-10T09:13:48.254Z,32.72
2022-12-10T09:16:16.133Z,31.58
2022-12-10T09:18:44.036Z,26.40
2022-12-10T09:21:17.405Z,73.60
2022-12-10T09:23:45.785Z,100.13
2022-12-10T09:26:17.368Z,55.53
2022-12-10T09:28:46.052Z,39.42
2022-12-10T09:31:20.155Z,29.25
2022-12-10T09:33:51.609Z,37.35
2022-12-10T09:36:21.147Z,49.88
2022-12-10T09:38:50.486Z,37.85
2022-12-10T09:41:45.520Z,56.35
2022-12-10T09:44:33.088Z,31.90
2022-12-10T09:47:04.850Z,25.92
2022-12-10T09:49:47.345Z,39.42
2022-12-10T09:52:23.819Z,21.23
2022-12-10T09:55:11.201Z,21.58
2022-12-10T09:57:52.686Z,25.67
2022-12-10T10:00:30.574Z,10.30
2022-12-10T10:03:01.645Z,7.97
2022-12-10T10:05:34.069Z,9.35
2022-12-10T10:08:07.697Z,26.77
2022-12-10T10:10:39.880Z,29.55
2022-12-10T10:13:32.667Z,48.72
2022-12-10T10:16:30.548Z,37.10
2022-12-10T10:19:12.837Z,44.20
2022-12-10T10:21:44.473Z,38.03
2022-12-10T10:24:18.742Z,33.47
2022-12-10T10:26:47.037Z,38.75
2022-12-10T10:29:21.161Z,45.60
2022-12-10T10:32:22.902Z,53.65
2022-12-10T10:34:56.948Z,51.67
2022-12-10T10:37:36.368Z,50.28
2022-12-10T10:40:04.605Z,38.90
2022-12-10T10:42:41.190Z,33.13
2022-12-10T10:45:43.611Z,22.83
2022-12-10T10:48:18.290Z,22.00
2022-12-10T10:51:05.684Z,21.80
2022-12-10T10:53:46.278Z,21.63
2022-12-10T10:56:37.960Z,22.63
2022-12-10T10:59:18.644Z,21.67
2022-12-10T11:01:56.021Z,14.75
2022-12-10T11:04:49.647Z,12.15
2022-12-10T11:07:35.725Z,17.30
2022-12-10T11:10:21.081Z,17.23
2022-12-10T11:13:23.497Z,23.80
2022-12-10T11:16:13.333Z,23.85
2022-12-10T11:18:52.292Z,24.50
2022-12-10T11:21:25.991Z,28.42
2022-12-10T11:23:56.926Z,32.95
2022-12-10T11:27:05.988Z,32.10
2022-12-10T11:29:41.612Z,36.10
2022-12-10T11:32:26.932Z,24.60
2022-12-10T11:35:14.946Z,25.38
2022-12-10T11:38:16.946Z,30.52
2022-12-10T11:41:08.449Z,14.73
2022-12-10T11:44:11.039Z,23.98
2022-12-10T11:47:06.412Z,15.25
2022-12-10T11:49:58.428Z,14.95
2022-12-10T11:53:00.457Z,14.65
2022-12-10T11:55:48.549Z,13.15
2022-12-10T11:58:59.782Z,14.27
2022-12-10T12:01:55.566Z,18.63
2022-12-10T12:04:40.515Z,16.90
2022-12-10T12:07:26.738Z,13.60
2022-12-10T12:10:12.901Z,15.38
2022-12-10T12:13:15.557Z,16.08
2022-12-10T12:16:00.934Z,26.08
2022-12-10T12:18:51.534Z,11.25
2022-12-10T12:21:19.593Z,18.35
2022-12-10T12:24:04.548Z,18.38
2022-12-10T12:26:49.999Z,12.32
2022-12-10T12:29:42.147Z,13.98
2022-12-10T12:32:28.102Z,12.43
2022-12-10T12:35:20.722Z,16.08
2022-12-10T12:38:02.085Z,12.73
2022-12-10T12:40:49.769Z,15.18
2022-12-10T12:43:26.079Z,29.55
2022-12-10T12:45:56.565Z,19.70
2022-12-10T12:48:42.322Z,17.02
2022-12-10T12:51:18.270Z,14.73
2022-12-10T12:53:46.078Z,22.50
2022-12-10T12:56:52.098Z,22.33
2022-12-10T13:00:20.064Z,28.90
2022-12-10T13:03:18.498Z,31.15
2022-12-10T13:05:47.936Z,20.48
2022-12-10T13:08:18.914Z,22.73
2022-12-10T13:11:16.954Z,35.25
2022-12-10T13:14:09.211Z,20.23
2022-12-10T13:16:39.599Z,16.85
2022-12-10T13:19:20.916Z,14.18
2022-12-10T13:22:38.817Z,12.25
2022-12-10T13:25:14.343Z,11.30
2022-12-10T13:27:54.769Z,19.73
2022-12-10T13:30:33.971Z,19.80
2022-12-10T13:33:20.701Z,14.27
2022-12-10T13:36:04.339Z,19.38
2022-12-10T13:39:18.475Z,16.33
2022-12-10T13:42:26.075Z,10.75
2022-12-10T13:45:23.990Z,12.52
2022-12-10T13:51:19.617Z,15.82
2022-12-10T13:54:21.241Z,15.77
2022-12-10T13:57:23.319Z,15.45
2022-12-10T14:00:23.506Z,17.77
2022-12-10T14:03:15.806Z,15.13
2022-12-10T14:05:58.327Z,15.65
2022-12-10T14:08:34.302Z,16.38
2022-12-10T14:11:18.428Z,18.48
2022-12-10T14:13:53.912Z,21.23
2022-12-10T14:16:24.875Z,25.67
2022-12-10T14:19:05.261Z,20.27
2022-12-10T14:21:37.419Z,15.38
2022-12-10T14:24:06.217Z,28.25
2022-12-10T14:26:37.881Z,31.98
2022-12-10T14:29:08.518Z,12.30
2022-12-10T14:31:45.025Z,12.05
2022-12-10T14:34:19.201Z,22.70
2022-12-10T14:36:51.481Z,26.98
2022-12-10T14:39:29.332Z,29.30
2022-12-10T14:42:03.469Z,24.42
2022-12-10T14:44:35.505Z,18.90
2022-12-10T14:47:18.451Z,24.52
2022-12-10T14:49:54.533Z,26.90
2022-12-10T14:52:36.284Z,33.60
2022-12-10T14:55:05.595Z,24.13
2022-12-10T14:57:41.978Z,28.02
2022-12-10T15:00:20.610Z,26.30
2022-12-10T15:03:12.554Z,26.00
2022-12-10T15:05:40.184Z,22.85
2022-12-10T15:08:16.884Z,50.67
2022-12-10T15:10:51.077Z,73.80
2022-12-10T15:13:25.502Z,72.43
2022-12-10T15:15:54.700Z,48.10
2022-12-10T15:18:38.448Z,47.70
2022-12-10T15:21:08.658Z,35.40
2022-12-10T15:23:37.366Z,42.95
2022-12-10T15:26:21.650Z,34.47
2022-12-10T15:28:52.086Z,46.30
2022-12-10T15:31:32.511Z,66.18
2022-12-10T15:34:08.884Z,37.35
2022-12-10T15:36:42.254Z,38.58
2022-12-10T15:39:12.585Z,25.90
2022-12-10T15:41:56.227Z,51.58
2022-12-10T15:44:43.467Z,35.53
2022-12-10T15:47:24.609Z,38.90
2022-12-10T15:49:56.777Z,51.88
2022-12-10T15:52:31.401Z,40.15
2022-12-10T15:55:00.043Z,27.00
2022-12-10T15:57:40.492Z,37.28
2022-12-10T16:00:26.215Z,32.67
2022-12-10T16:03:06.431Z,19.17
2022-12-10T16:05:39.701Z,37.10
2022-12-10T16:08:29.849Z,36.92
2022-12-10T16:11:03.907Z,34.13
2022-12-10T16:13:42.030Z,27.52
2022-12-10T16:18:39.102Z,26.02
2022-12-10T16:21:09.498Z,21.35
2022-12-10T16:23:39.473Z,25.20
2022-12-10T16:26:24.918Z,31.60
2022-12-10T16:28:53.168Z,23.35
2022-12-10T16:33:52.757Z,20.70
2022-12-10T16:36:20.661Z,24.60
2022-12-10T16:38:48.458Z,29.58
2022-12-10T16:41:23.295Z,28.15
2022-12-10T16:43:51.698Z,26.33
2022-12-10T16:46:19.468Z,40.83
2022-12-10T16:48:47.317Z,22.27
2022-12-10T16:51:22.279Z,32.10
2022-12-10T16:53:49.922Z,35.28
2022-12-10T16:56:17.873Z,37.35
2022-12-10T16:58:46.553Z,34.47
2022-12-10T17:01:22.345Z,35.63
2022-12-10T17:03:51.782Z,25.83
2022-12-10T17:06:20.350Z,34.28
2022-12-10T17:08:48.445Z,36.03
2022-12-10T17:11:41.759Z,23.85
2022-12-10T17:14:21.619Z,29.98
2022-12-10T17:16:50.370Z,39.67
2022-12-10T17:19:18.253Z,42.00
2022-12-10T17:21:46.609Z,34.95
2022-12-10T17:24:14.239Z,29.67
2022-12-10T17:26:48.944Z,29.42
2022-12-10T17:29:28.910Z,32.65
2022-12-10T17:31:56.584Z,27.30
2022-12-10T17:36:52.993Z,27.52
2022-12-10T17:39:25.790Z,25.65
2022-12-10T17:41:53.841Z,25.63
2022-12-10T17:44:23.040Z,23.15
2022-12-10T17:46:50.840Z,26.02
2022-12-10T17:49:18.547Z,22.02
2022-12-10T17:51:46.343Z,26.95
2022-12-10T17:54:14.603Z,32.50
2022-12-10T17:56:43.043Z,29.10
2022-12-10T17:59:15.160Z,31.23
2022-12-10T18:01:48.103Z,34.70
2022-12-10T18:04:16.442Z,36.40
2022-12-10T18:06:44.022Z,38.72
2022-12-10T18:09:13.140Z,43.60
2022-12-10T18:11:44.255Z,40.95
2022-12-10T18:14:15.242Z,35.45
2022-12-10T18:16:44.310Z,51.47
2022-12-10T18:19:15.902Z,74.15
2022-12-10T18:21:44.525Z,76.85
2022-12-10T18:24:13.408Z,72.97
2022-12-10T18:26:44.642Z,66.88
2022-12-10T18:29:15.850Z,64.30
2022-12-10T18:31:45.004Z,74.97
2022-12-10T18:34:16.062Z,78.13
2022-12-10T18:36:47.777Z,73.97
2022-12-10T18:39:22.821Z,86.28
2022-12-10T18:41:52.300Z,62.03
2022-12-10T18:44:25.080Z,71.20
2022-12-10T18:46:56.517Z,78.53
2022-12-10T18:49:25.562Z,65.18
2022-12-10T18:51:53.161Z,71.25
2022-12-10T18:54:20.936Z,62.13
2022-12-10T18:57:32.362Z,54.78
2022-12-10T18:59:36.149Z,52.78
2022-12-10T19:02:04.050Z,56.20
2022-12-10T19:04:31.635Z,55.70
2022-12-10T19:06:59.560Z,65.97
2022-12-10T19:09:32.331Z,47.65
2022-12-10T19:12:00.481Z,46.78
2022-12-10T19:14:28.073Z,45.65
2022-12-10T19:16:55.644Z,46.85
2022-12-10T19:19:23.150Z,51.30
2022-12-10T19:21:50.743Z,47.70
2022-12-10T19:24:18.537Z,45.60
2022-12-10T19:26:47.474Z,42.25
2022-12-10T19:29:19.634Z,48.97
2022-12-10T19:31:48.954Z,49.42
2022-12-10T19:34:19.503Z,49.83
2022-12-10T19:36:52.470Z,53.50
2022-12-10T19:39:26.047Z,51.65
2022-12-10T19:41:55.391Z,43.38
2022-12-10T19:44:23.161Z,40.92
2022-12-10T19:46:51.537Z,30.20
2022-12-10T19:49:19.914Z,39.13
2022-12-10T19:54:15.677Z,28.90
2022-12-10T19:56:44.233Z,51.20
2022-12-10T19:59:18.443Z,26.23
2022-12-10T20:01:47.146Z,31.83
2022-12-10T20:04:17.551Z,27.02
2022-12-10T20:06:49.011Z,24.30
2022-12-10T20:09:28.720Z,31.08
2022-12-10T20:11:57.062Z,25.73
2022-12-10T20:14:25.120Z,31.55
2022-12-10T20:16:53.809Z,28.77
2022-12-10T20:19:24.688Z,23.55
2022-12-10T20:21:53.272Z,30.25
2022-12-10T20:24:20.998Z,33.28
2022-12-10T20:26:50.022Z,26.30
2022-12-10T20:29:22.783Z,30.15
2022-12-10T20:31:54.747Z,18.92
2022-12-10T20:34:24.926Z,27.55
2022-12-10T20:36:53.255Z,18.65
2022-12-10T20:39:26.150Z,26.45
2022-12-10T20:41:55.516Z,17.10
2022-12-10T20:44:24.400Z,12.75
2022-12-10T20:46:54.285Z,18.45
2022-12-10T20:49:24.792Z,16.35
2022-12-10T20:51:52.631Z,13.77
2022-12-10T20:54:20.437Z,11.73
2022-12-10T20:56:48.088Z,10.95
2022-12-10T20:59:17.533Z,18.70
2022-12-10T21:01:45.428Z,7.55
2022-12-10T21:04:13.342Z,7.93
2022-12-10T21:06:43.991Z,13.05
2022-12-10T21:09:13.847Z,7.38
2022-12-10T21:11:41.405Z,5.60
2022-12-10T21:14:18.417Z,4.90
2022-12-10T21:16:58.620Z,7.50
2022-12-10T21:19:27.880Z,8.93
2022-12-10T21:21:56.096Z,7.10
2022-12-10T21:24:23.653Z,10.35
2022-12-10T21:26:51.181Z,9.50
2022-12-10T21:29:18.895Z,7.10
2022-12-10T21:31:46.919Z,7.05
2022-12-10T21:34:14.468Z,9.75
2022-12-10T21:36:42.099Z,8.27
2022-12-10T21:39:09.739Z,5.77
2022-12-10T21:41:56.151Z,8.00
2022-12-10T21:44:23.749Z,6.57
2022-12-10T21:46:51.486Z,5.50
2022-12-10T21:49:19.226Z,5.43
2022-12-10T21:51:46.829Z,10.20
2022-12-10T21:54:14.337Z,5.50
2022-12-10T21:56:41.912Z,5.60
2022-12-10T21:59:09.474Z,6.10
2022-12-10T22:01:37.101Z,5.00
2022-12-10T22:04:05.119Z,3.07
2022-12-10T22:06:32.690Z,5.15
2022-12-10T22:09:00.278Z,3.22
2022-12-10T22:11:28.752Z,5.85
2022-12-10T22:13:56.362Z,6.27
2022-12-10T22:16:24.255Z,3.17
2022-12-10T22:18:51.795Z,5.20
2022-12-10T22:21:23.496Z,5.63
2022-12-10T22:23:53.102Z,5.35
2022-12-10T22:26:22.862Z,5.38
2022-12-10T22:28:51.304Z,4.55
2022-12-10T22:31:19.945Z,6.82
2022-12-10T22:33:47.593Z,4.13
2022-12-10T22:36:15.158Z,7.67
2022-12-10T22:38:42.788Z,4.70
2022-12-10T22:41:10.414Z,4.53
2022-12-10T22:43:53.285Z,6.10
2022-12-10T22:46:21.628Z,7.38
2022-12-10T22:48:49.407Z,8.23
2022-12-10T22:51:17.557Z,7.53
2022-12-10T22:53:46.120Z,6.07
2022-12-10T22:56:16.266Z,6.55
2022-12-10T22:58:44.289Z,9.00
2022-12-10T23:01:18.011Z,11.48
2022-12-10T23:03:46.346Z,10.32
2022-12-10T23:06:13.911Z,5.82
2022-12-10T23:08:41.536Z,10.73
2022-12-10T23:11:12.207Z,7.67
2022-12-10T23:13:40.913Z,3.05
2022-12-10T23:16:14.251Z,4.03
2022-12-10T23:18:43.983Z,3.78
2022-12-10T23:21:25.575Z,2.38
2022-12-10T23:23:54.608Z,2.40
2022-12-10T23:26:22.540Z,3.40
2022-12-10T23:28:50.429Z,7.97
2022-12-10T23:31:18.731Z,3.53
2022-12-10T23:33:46.897Z,2.03
2022-12-10T23:36:14.418Z,2.80
2022-12-10T23:38:42.147Z,3.03
2022-12-10T23:41:12.235Z,2.45
2022-12-10T23:43:43.235Z,2.25
2022-12-10T23:46:11.493Z,2.20
2022-12-10T23:48:39.263Z,2.08
2022-12-10T23:51:07.263Z,2.90
2022-12-10T23:53:36.025Z,1.73
2022-12-10T23:56:16.652Z,3.92
2022-12-10T23:58:46.048Z,5.25
